Time;durP1;ratioP1;P1;durP2;ratioP2;P2;SDS_P1;SDS_P2;PMS_P1;PMS_P2;Temp;Humidity;BMP_temperature;BMP_pressure;BME280_temperature;BME280_humidity;BME280_pressure;Samples;Min_cycle;Max_cycle;Signal;HPM_P1;HPM_P2
2023/01/17 00:00:31;;;;;;;1.75;0.80;;;;;;;3.91;100.00;98185.00;5035576;28;20633;-65
2023/01/17 00:02:58;;;;;;;5.80;0.70;;;;;;;3.96;100.00;98180.13;5044628;28;20048;-65
2023/01/17 00:10:57;;;;;;;1.45;0.40;;;;;;;4.06;100.00;98194.69;5039544;28;20041;-66
2023/01/17 00:13:24;;;;;;;3.08;0.77;;;;;;;4.09;100.00;98202.91;5038002;28;20056;-66
2023/01/17 00:15:50;;;;;;;6.20;1.45;;;;;;;4.10;100.00;98204.53;5024730;28;20067;-65
2023/01/17 00:18:17;;;;;;;4.72;0.82;;;;;;;4.02;100.00;98202.00;5031017;28;20060;-66
2023/01/17 00:26:01;;;;;;;2.10;0.60;;;;;;;3.90;100.00;98204.16;5045154;28;20754;-66
2023/01/17 00:26:26;;;;;;;3.65;0.85;;;;;;;3.89;100.00;98212.09;5040457;28;20056;-65
2023/01/17 01:35:54;;;;;;;1.60;0.68;;;;;;;3.10;100.00;98372.50;5040684;28;20088;-68
2023/01/17 01:38:23;;;;;;;1.98;0.50;;;;;;;2.99;100.00;98372.78;5035042;28;20144;-69
2023/01/17 01:40:52;;;;;;;1.95;0.52;;;;;;;2.98;100.00;98379.75;5045964;28;20065;-68
2023/01/17 01:43:42;;;;;;;1.27;0.40;;;;;;;2.71;100.00;98391.16;5042604;28;20416;-68
2023/01/17 01:46:35;;;;;;;1.55;0.70;;;;;;;2.74;100.00;98393.41;5042632;28;20056;-68
2023/01/17 01:49:12;;;;;;;2.83;0.80;;;;;;;2.66;100.00;98401.94;5020543;28;20048;-68
2023/01/17 01:51:49;;;;;;;1.65;0.50;;;;;;;2.50;100.00;98387.16;5040042;28;20060;-68
2023/01/17 01:54:20;;;;;;;0.50;0.40;;;;;;;2.54;100.00;98382.50;5044458;28;20068;-67
2023/01/17 01:56:50;;;;;;;0.40;0.40;;;;;;;2.47;100.00;98392.66;5058227;28;20067;-67
2023/01/17 01:59:20;;;;;;;0.45;0.30;;;;;;;2.54;100.00;98398.03;5064191;28;20044;-66
2023/01/17 02:01:48;;;;;;;0.75;0.50;;;;;;;2.58;100.00;98399.31;5059610;28;20049;-67
2023/01/17 02:04:16;;;;;;;0.43;0.43;;;;;;;2.52;100.00;98405.94;5060107;28;20063;-68
2023/01/17 02:06:47;;;;;;;1.67;0.50;;;;;;;2.50;100.00;98404.47;5045922;28;20055;-68
2023/01/17 02:09:16;;;;;;;0.80;0.40;;;;;;;2.47;100.00;98410.78;5064074;28;20048;-68
2023/01/17 02:11:45;;;;;;;0.88;0.68;;;;;;;2.45;100.00;98415.28;5053113;28;20102;-68
2023/01/17 02:14:17;;;;;;;0.70;0.52;;;;;;;2.47;100.00;98422.88;5063023;28;20052;-67
2023/01/17 02:17:02;;;;;;;1.95;0.93;;;;;;;2.43;100.00;98435.34;5063910;28;20390;-67
2023/01/17 02:19:31;;;;;;;1.30;0.70;;;;;;;2.41;100.00;98446.78;5051995;28;20045;-68
2023/01/17 02:22:19;;;;;;;0.85;0.57;;;;;;;2.44;100.00;98449.06;5063292;28;20056;-67
2023/01/17 02:25:10;;;;;;;1.63;0.90;;;;;;;2.46;100.00;98445.38;5050698;28;20153;-67
2023/01/17 02:28:02;;;;;;;1.13;0.60;;;;;;;2.53;100.00;98455.94;5064706;28;20482;-67
2023/01/17 02:30:52;;;;;;;0.98;0.70;;;;;;;2.48;100.00;98456.38;5057485;28;20059;-67
2023/01/17 02:33:31;;;;;;;1.85;0.80;;;;;;;2.43;100.00;98461.22;5057593;28;20061;-67
2023/01/17 02:36:21;;;;;;;2.00;0.60;;;;;;;2.33;100.00;98457.88;5047059;28;20082;-66
2023/01/17 02:38:53;;;;;;;3.30;0.90;;;;;;;2.30;100.00;98459.00;5064633;28;20094;-67
2023/01/17 02:41:26;;;;;;;1.58;0.50;;;;;;;2.29;100.00;98477.25;5059179;28;20063;-68
2023/01/17 02:43:52;;;;;;;2.35;0.60;;;;;;;2.27;100.00;98474.81;5060006;28;20049;-68
2023/01/17 02:46:19;;;;;;;3.60;0.60;;;;;;;2.17;100.00;98481.88;5053490;28;20084;-67
2023/01/17 02:48:46;;;;;;;1.48;0.50;;;;;;;2.20;100.00;98473.81;5052331;28;20044;-67
2023/01/17 02:51:28;;;;;;;0.40;0.40;;;;;;;2.15;100.00;98482.00;5064233;28;20063;-67
2023/01/17 02:54:17;;;;;;;0.70;0.60;;;;;;;2.15;100.00;98494.13;5051194;28;20052;-68
2023/01/17 02:57:21;;;;;;;0.98;0.70;;;;;;;2.21;100.00;98498.72;5056891;28;20052;-66
2023/01/17 03:00:00;;;;;;;0.70;0.70;;;;;;;2.03;100.00;98496.13;5055868;28;20181;-67
2023/01/17 03:03:13;;;;;;;2.22;1.15;;;;;;;2.11;100.00;98491.03;5058841;28;20516;-66
2023/01/17 03:05:47;;;;;;;3.45;1.02;;;;;;;2.12;100.00;98502.22;5058452;28;20044;-67
2023/01/17 03:08:14;;;;;;;2.63;0.93;;;;;;;2.10;100.00;98507.53;5060625;28;20663;-66
2023/01/17 03:10:41;;;;;;;2.20;1.00;;;;;;;2.15;100.00;98501.91;5031021;28;20056;-68
2023/01/17 03:13:08;;;;;;;1.98;0.80;;;;;;;2.04;100.00;98513.28;5059908;28;20110;-67
2023/01/17 03:15:34;;;;;;;1.63;0.75;;;;;;;2.04;100.00;98509.88;5052330;28;20563;-67
2023/01/17 03:18:05;;;;;;;1.70;0.80;;;;;;;2.04;100.00;98505.53;5062659;28;20067;-68
2023/01/17 03:20:31;;;;;;;2.00;0.88;;;;;;;2.07;100.00;98512.97;5057748;28;20044;-66
2023/01/17 03:22:58;;;;;;;2.10;0.82;;;;;;;2.08;100.00;98506.88;5062172;28;20056;-67
2023/01/17 03:25:24;;;;;;;6.45;1.08;;;;;;;2.10;100.00;98491.22;5064070;28;20468;-68
2023/01/17 03:27:51;;;;;;;2.83;0.73;;;;;;;2.13;100.00;98483.13;5053271;28;20560;-68
2023/01/17 03:30:19;;;;;;;0.80;0.77;;;;;;;2.16;100.00;98498.38;5059471;28;20068;-66
2023/01/17 03:32:45;;;;;;;2.53;0.88;;;;;;;2.21;100.00;98513.44;5056142;28;20053;-67
2023/01/17 03:35:11;;;;;;;1.83;0.75;;;;;;;2.21;100.00;98514.22;5061206;28;20060;-67
2023/01/17 03:37:38;;;;;;;2.88;0.80;;;;;;;2.16;100.00;98513.88;5058025;28;20552;-66
2023/01/17 03:40:05;;;;;;;2.45;0.70;;;;;;;2.15;100.00;98517.41;5063404;28;20068;-67
2023/01/17 03:42:31;;;;;;;4.72;0.65;;;;;;;1.98;100.00;98524.25;5058790;28;20058;-68
2023/01/17 03:44:58;;;;;;;1.58;0.63;;;;;;;1.95;100.00;98522.75;5051629;28;20052;-62
2023/01/17 03:47:24;;;;;;;3.95;0.80;;;;;;;1.88;100.00;98521.72;5063255;28;20052;-61
2023/01/17 03:49:51;;;;;;;0.57;0.32;;;;;;;1.83;100.00;98521.34;5057910;28;20477;-63
2023/01/17 03:52:17;;;;;;;2.47;0.63;;;;;;;1.82;100.00;98522.28;5063515;28;20084;-62
2023/01/17 03:54:43;;;;;;;5.00;0.65;;;;;;;1.84;100.00;98529.91;5057050;28;20057;-66
2023/01/17 03:57:10;;;;;;;4.00;0.57;;;;;;;1.83;100.00;98533.47;5054496;28;20063;-68
2023/01/17 03:59:36;;;;;;;1.85;0.60;;;;;;;1.82;100.00;98545.53;5065262;28;20066;-66
2023/01/17 04:02:03;;;;;;;1.92;0.50;;;;;;;1.75;100.00;98544.53;5058670;28;20063;-66
2023/01/17 04:04:29;;;;;;;5.32;0.60;;;;;;;1.74;100.00;98540.28;5067025;28;20064;-66
2023/01/17 04:06:56;;;;;;;3.13;0.55;;;;;;;1.76;100.00;98546.13;5057778;28;20052;-67
2023/01/17 04:09:22;;;;;;;2.85;0.63;;;;;;;1.74;100.00;98554.03;5062081;28;20052;-65
2023/01/17 04:11:49;;;;;;;3.22;0.50;;;;;;;1.73;100.00;98544.66;5057417;28;20291;-66
2023/01/17 04:14:16;;;;;;;3.50;0.40;;;;;;;1.79;100.00;98551.03;5066484;28;20102;-67
2023/01/17 04:16:43;;;;;;;2.22;0.80;;;;;;;1.77;100.00;98550.38;5067162;28;20067;-67
2023/01/17 04:19:12;;;;;;;2.65;0.77;;;;;;;1.71;100.00;98556.91;5059711;28;20056;-65
2023/01/17 04:21:38;;;;;;;1.05;0.60;;;;;;;1.58;100.00;98556.44;5057983;28;20477;-66
2023/01/17 04:24:05;;;;;;;1.40;0.60;;;;;;;1.52;100.00;98557.84;5053360;28;20528;-66
2023/01/17 04:26:31;;;;;;;2.17;0.90;;;;;;;1.45;100.00;98551.63;5066199;28;20106;-66
2023/01/17 04:28:58;;;;;;;4.57;1.40;;;;;;;1.44;100.00;98555.16;5060075;28;20407;-65
2023/01/17 04:31:24;;;;;;;3.35;0.98;;;;;;;1.46;100.00;98555.81;5047285;28;20056;-67
2023/01/17 04:33:51;;;;;;;3.05;1.35;;;;;;;1.45;100.00;98561.97;5048742;28;20052;-66
2023/01/17 04:36:17;;;;;;;2.35;1.27;;;;;;;1.55;100.00;98557.56;5056016;28;20102;-65
2023/01/17 04:38:44;;;;;;;1.85;0.93;;;;;;;1.55;100.00;98561.91;5061222;28;20052;-66
2023/01/17 04:41:10;;;;;;;2.53;1.27;;;;;;;1.59;100.00;98558.09;5060301;28;20056;-66
2023/01/17 04:43:36;;;;;;;8.27;1.67;;;;;;;1.53;100.00;98562.06;5065826;28;20057;-66
2023/01/17 04:46:04;;;;;;;1.50;0.85;;;;;;;1.49;100.00;98567.63;5059535;28;20055;-66
2023/01/17 04:48:32;;;;;;;3.05;1.45;;;;;;;1.45;100.00;98558.53;5065518;28;20044;-66
2023/01/17 04:51:03;;;;;;;4.03;1.27;;;;;;;1.43;100.00;98561.31;5058541;28;20485;-66
2023/01/17 04:53:30;;;;;;;4.43;1.40;;;;;;;1.42;100.00;98556.28;5058349;28;20076;-65
2023/01/17 04:55:56;;;;;;;10.35;1.73;;;;;;;1.42;100.00;98561.44;5048084;28;20791;-67
2023/01/17 04:58:23;;;;;;;4.72;1.60;;;;;;;1.37;100.00;98559.25;5056196;28;20048;-65
2023/01/17 05:00:50;;;;;;;3.55;1.23;;;;;;;1.37;100.00;98561.84;5066896;28;20470;-66
2023/01/17 05:03:18;;;;;;;6.10;1.83;;;;;;;1.37;100.00;98573.00;5055750;28;20102;-65
2023/01/17 05:05:45;;;;;;;4.45;1.00;;;;;;;1.38;100.00;98560.91;5059865;28;20056;-66
2023/01/17 05:08:12;;;;;;;5.25;1.05;;;;;;;1.36;100.00;98567.97;5065316;28;20082;-67
2023/01/17 05:10:38;;;;;;;2.58;0.93;;;;;;;1.34;100.00;98570.69;5059386;28;20056;-66
2023/01/17 05:13:05;;;;;;;4.63;1.02;;;;;;;1.33;100.00;98581.16;5065527;28;20055;-66
2023/01/17 05:15:31;;;;;;;3.03;1.10;;;;;;;1.27;100.00;98581.75;5058986;28;20063;-66
2023/01/17 05:17:58;;;;;;;5.10;1.20;;;;;;;1.25;100.00;98581.88;5063794;28;20059;-66
2023/01/17 05:20:25;;;;;;;8.68;1.42;;;;;;;1.24;100.00;98587.22;5054442;28;20615;-66
2023/01/17 05:22:54;;;;;;;3.85;1.17;;;;;;;1.19;100.00;98593.59;5064466;28;20053;-66
2023/01/17 05:25:24;;;;;;;;;;;;;;;1.20;100.00;98589.25;5066787;28;20497;-66
2023/01/17 05:27:52;;;;;;;2.00;1.23;;;;;;;1.24;100.00;98577.69;5062326;28;19924;-66
2023/01/17 05:30:19;;;;;;;4.63;1.17;;;;;;;1.16;100.00;98586.13;5062476;28;20056;-65
2023/01/17 05:32:50;;;;;;;5.78;1.10;;;;;;;1.19;100.00;98580.66;5051608;28;20103;-66
2023/01/17 05:35:19;;;;;;;4.68;1.27;;;;;;;1.17;100.00;98590.31;5064540;28;20059;-66
2023/01/17 05:37:48;;;;;;;9.88;2.10;;;;;;;1.22;100.00;98596.88;5046304;28;20586;-66
2023/01/17 05:40:15;;;;;;;3.40;1.35;;;;;;;1.22;100.00;98594.28;5064802;28;20640;-66
2023/01/17 05:42:46;;;;;;;12.17;2.07;;;;;;;1.18;100.00;98597.13;5065393;28;20305;-66
2023/01/17 05:45:15;;;;;;;2.28;1.35;;;;;;;1.17;100.00;98594.69;5052751;28;20303;-67
2023/01/17 05:47:46;;;;;;;3.90;1.45;;;;;;;1.17;100.00;98607.59;5060296;28;20061;-67
2023/01/17 05:50:16;;;;;;;4.40;1.13;;;;;;;1.16;100.00;98613.72;5057947;28;20052;-66
2023/01/17 05:52:51;;;;;;;3.03;1.33;;;;;;;1.14;100.00;98615.66;5065460;28;20131;-66
2023/01/17 05:55:17;;;;;;;5.68;1.52;;;;;;;1.21;100.00;98615.88;5059042;28;20428;-66
2023/01/17 05:57:44;;;;;;;2.30;1.20;;;;;;;1.19;100.00;98614.25;5065021;28;20048;-66
2023/01/17 06:00:11;;;;;;;6.88;1.42;;;;;;;1.14;100.00;98621.63;5054129;28;20558;-66
2023/01/17 06:02:38;;;;;;;3.28;1.52;;;;;;;1.13;100.00;98624.31;5059067;28;20048;-66
2023/01/17 06:05:05;;;;;;;5.32;1.40;;;;;;;1.11;100.00;98628.81;5063527;28;20459;-66
2023/01/17 06:07:32;;;;;;;5.80;1.42;;;;;;;1.09;100.00;98634.13;5056744;28;20070;-66
2023/01/17 06:09:59;;;;;;;3.83;1.42;;;;;;;1.06;100.00;98624.09;5063887;28;20052;-65
2023/01/17 06:12:25;;;;;;;3.42;1.30;;;;;;;0.95;100.00;98632.78;5056427;28;20475;-65
2023/01/17 06:14:51;;;;;;;6.97;1.30;;;;;;;0.99;100.00;98625.59;5057114;28;20118;-65
2023/01/17 06:17:18;;;;;;;2.67;1.10;;;;;;;1.01;100.00;98633.19;5058650;28;20052;-65
2023/01/17 06:19:44;;;;;;;4.47;1.10;;;;;;;1.03;100.00;98634.69;5060958;28;20044;-66
2023/01/17 06:22:11;;;;;;;3.03;1.10;;;;;;;1.03;100.00;98632.09;5059394;28;20051;-64
2023/01/17 06:24:37;;;;;;;1.73;0.90;;;;;;;1.03;100.00;98631.28;5065098;28;20052;-66
2023/01/17 06:27:04;;;;;;;4.47;1.10;;;;;;;1.05;100.00;98637.13;5051578;28;20048;-66
2023/01/17 06:29:30;;;;;;;3.40;1.27;;;;;;;1.05;100.00;98634.53;5043917;28;20059;-66
2023/01/17 06:31:56;;;;;;;10.65;2.03;;;;;;;0.98;100.00;98642.00;5063140;28;20376;-66
2023/01/17 06:34:26;;;;;;;9.52;1.90;;;;;;;0.93;100.00;98639.06;5057521;28;20052;-65
2023/01/17 06:36:53;;;;;;;5.15;1.73;;;;;;;0.92;100.00;98643.41;5063822;28;20052;-66
2023/01/17 06:39:19;;;;;;;6.30;1.60;;;;;;;0.91;100.00;98648.69;5064355;28;20048;-65
2023/01/17 06:41:46;;;;;;;7.28;1.50;;;;;;;0.88;100.00;98647.22;5034164;28;20088;-65
2023/01/17 06:44:12;;;;;;;7.40;1.75;;;;;;;0.88;100.00;98649.81;5059529;28;20501;-66
2023/01/17 06:46:39;;;;;;;5.20;1.50;;;;;;;0.87;100.00;98657.69;5056760;28;20052;-66
2023/01/17 06:49:06;;;;;;;2.30;1.40;;;;;;;0.88;100.00;98656.72;5062228;28;20424;-66
2023/01/17 06:51:32;;;;;;;6.20;1.77;;;;;;;0.83;100.00;98662.28;5057982;28;20056;-66
2023/01/17 06:53:59;;;;;;;9.13;1.73;;;;;;;0.79;100.00;98664.31;5062005;28;20418;-65
2023/01/17 06:56:25;;;;;;;6.72;1.85;;;;;;;0.78;100.00;98667.03;5057644;28;20063;-65
2023/01/17 06:58:51;;;;;;;6.32;1.85;;;;;;;0.76;100.00;98667.16;5053313;28;20044;-66
2023/01/17 07:01:18;;;;;;;7.38;2.20;;;;;;;0.78;100.00;98665.28;5063815;28;20140;-65
2023/01/17 07:03:44;;;;;;;10.00;2.08;;;;;;;0.84;100.00;98660.50;5057650;28;20102;-66
2023/01/17 07:06:11;;;;;;;5.22;2.10;;;;;;;0.83;100.00;98649.38;5058351;28;20101;-66
2023/01/17 07:08:37;;;;;;;5.43;2.38;;;;;;;0.83;100.00;98646.00;5054906;28;20155;-66
2023/01/17 07:11:06;;;;;;;6.90;2.10;;;;;;;0.92;100.00;98648.56;5047782;28;20535;-66
2023/01/17 07:13:35;;;;;;;5.07;2.22;;;;;;;0.99;100.00;98654.78;5063849;28;20056;-66
2023/01/17 07:16:06;;;;;;;4.85;2.08;;;;;;;1.02;100.00;98658.03;5056270;28;20097;-65
2023/01/17 07:18:33;;;;;;;6.82;2.72;;;;;;;1.08;100.00;98658.31;5061152;28;20052;-66
2023/01/17 07:21:00;;;;;;;7.55;2.25;;;;;;;1.17;100.00;98654.09;5049967;28;20052;-66
2023/01/17 07:23:26;;;;;;;7.72;2.25;;;;;;;1.22;100.00;98664.00;5055501;28;20044;-65
2023/01/17 07:25:55;;;;;;;5.32;2.33;;;;;;;1.25;100.00;98666.31;5054756;28;20153;-66
2023/01/17 07:28:22;;;;;;;5.70;2.50;;;;;;;1.26;100.00;98673.13;5061825;28;20505;-65
2023/01/17 07:30:48;;;;;;;8.77;2.70;;;;;;;1.27;100.00;98680.69;5062892;28;20048;-65
2023/01/17 07:33:15;;;;;;;9.63;4.10;;;;;;;1.32;100.00;98677.72;5058887;28;20049;-67
2023/01/17 07:35:42;;;;;;;10.55;3.30;;;;;;;1.26;100.00;98693.78;5045735;28;20044;-66
2023/01/17 07:38:14;;;;;;;6.95;2.78;;;;;;;1.25;100.00;98685.19;5054993;28;20096;-66
2023/01/17 07:40:41;;;;;;;6.45;2.85;;;;;;;1.19;100.00;98689.13;5063969;28;20512;-65
2023/01/17 07:43:14;;;;;;;8.55;3.20;;;;;;;1.19;100.00;98686.56;5061156;28;20159;-66
2023/01/17 07:45:42;;;;;;;8.88;3.75;;;;;;;1.21;100.00;98678.66;5066315;28;20162;-66
2023/01/17 07:48:10;;;;;;;10.10;3.65;;;;;;;1.22;100.00;98679.50;5063443;28;20057;-66
2023/01/17 07:50:36;;;;;;;8.02;3.83;;;;;;;1.12;100.00;98672.59;5052616;28;20083;-67
2023/01/17 07:53:04;;;;;;;8.50;3.25;;;;;;;1.13;100.00;98675.97;5065118;28;20048;-65
2023/01/17 07:55:31;;;;;;;9.20;3.60;;;;;;;1.10;100.00;98671.91;5057720;28;20048;-65
2023/01/17 07:57:57;;;;;;;9.90;3.88;;;;;;;1.13;100.00;98679.38;5065806;28;20056;-66
2023/01/17 08:00:26;;;;;;;8.00;3.33;;;;;;;1.14;100.00;98685.38;5060960;28;20129;-65
2023/01/17 08:02:57;;;;;;;7.38;4.05;;;;;;;1.12;100.00;98690.66;5061319;28;20048;-66
2023/01/17 08:05:24;;;;;;;11.88;4.40;;;;;;;1.09;100.00;98687.53;5070756;28;20101;-66
2023/01/17 08:07:50;;;;;;;8.55;3.45;;;;;;;1.14;100.00;98683.59;5056720;28;20053;-66
2023/01/17 08:10:18;;;;;;;9.95;4.07;;;;;;;1.08;100.00;98684.16;5066018;28;20048;-65
2023/01/17 08:12:49;;;;;;;12.13;4.80;;;;;;;1.05;100.00;98686.19;5060208;28;20131;-66
2023/01/17 08:15:16;;;;;;;8.80;4.53;;;;;;;1.04;100.00;98685.38;5061145;28;20062;-66
2023/01/17 08:17:47;;;;;;;16.45;5.30;;;;;;;0.96;100.00;98680.06;5057505;28;20067;-67
2023/01/17 08:20:15;;;;;;;15.98;5.00;;;;;;;0.97;100.00;98679.13;5050595;28;20056;-67
2023/01/17 08:22:41;;;;;;;14.05;5.15;;;;;;;0.92;100.00;98682.13;5056505;28;20406;-68
2023/01/17 08:25:08;;;;;;;11.25;5.53;;;;;;;0.85;100.00;98685.38;5052923;28;20056;-66
2023/01/17 08:27:35;;;;;;;20.60;5.55;;;;;;;0.83;100.00;98689.88;5061225;28;20173;-65
2023/01/17 08:30:01;;;;;;;13.93;5.90;;;;;;;0.79;100.00;98692.72;5049526;28;20044;-66
2023/01/17 08:32:28;;;;;;;9.05;5.82;;;;;;;0.86;100.00;98692.16;5064584;28;20048;-66
2023/01/17 08:34:56;;;;;;;18.73;6.80;;;;;;;0.86;100.00;98687.81;5054417;28;20053;-67
2023/01/17 08:37:22;;;;;;;22.23;7.63;;;;;;;0.91;100.00;98693.38;5064437;28;20048;-65
2023/01/17 08:39:49;;;;;;;16.77;8.18;;;;;;;0.83;100.00;98698.44;5064647;28;20095;-66
2023/01/17 08:42:15;;;;;;;19.77;8.82;;;;;;;0.84;100.00;98696.66;5051020;28;20112;-65
2023/01/17 08:44:42;;;;;;;28.77;8.48;;;;;;;0.88;100.00;98698.00;5061709;28;20052;-66
2023/01/17 08:47:09;;;;;;;17.30;8.63;;;;;;;0.89;100.00;98697.88;5057207;28;20063;-66
2023/01/17 08:49:36;;;;;;;16.13;8.48;;;;;;;0.92;100.00;98694.19;5064486;28;20049;-65
2023/01/17 08:52:04;;;;;;;21.55;9.38;;;;;;;0.94;100.00;98700.03;5056814;28;20417;-66
2023/01/17 08:54:30;;;;;;;18.60;8.75;;;;;;;0.98;100.00;98702.22;5062153;28;20059;-67
2023/01/17 08:56:57;;;;;;;14.27;8.77;;;;;;;0.99;100.00;98698.69;5057133;28;20063;-64
2023/01/17 08:59:23;;;;;;;20.20;8.35;;;;;;;1.05;100.00;98705.06;5057263;28;20036;-67
2023/01/17 09:01:51;;;;;;;15.75;9.07;;;;;;;1.01;100.00;98705.50;5063729;28;20045;-66
2023/01/17 09:04:18;;;;;;;17.67;8.68;;;;;;;1.07;100.00;98708.31;5049295;28;20508;-65
2023/01/17 09:06:46;;;;;;;15.75;8.85;;;;;;;1.06;100.00;98709.28;5062631;28;20768;-67
2023/01/17 09:09:14;;;;;;;16.67;8.85;;;;;;;1.12;100.00;98700.19;5055028;28;20087;-66
2023/01/17 09:11:41;;;;;;;19.10;10.15;;;;;;;1.04;100.00;98712.94;5044202;28;20052;-66
2023/01/17 09:14:11;;;;;;;16.45;9.68;;;;;;;1.04;100.00;98718.09;5061688;28;20075;-66
2023/01/17 09:16:37;;;;;;;17.77;8.48;;;;;;;0.95;100.00;98717.97;5056855;28;20421;-65
2023/01/17 09:19:04;;;;;;;18.70;9.90;;;;;;;0.98;100.00;98719.47;5045722;28;20140;-67
2023/01/17 09:21:30;;;;;;;17.58;8.82;;;;;;;1.02;100.00;98728.59;5057682;28;20036;-69
2023/01/17 09:23:57;;;;;;;17.20;9.90;;;;;;;1.05;100.00;98725.72;5059817;28;20423;-67
2023/01/17 09:26:26;;;;;;;14.88;8.93;;;;;;;1.15;100.00;98730.88;5060709;28;20056;-68
2023/01/17 09:28:53;;;;;;;16.67;9.60;;;;;;;1.22;100.00;98734.56;5049427;28;20079;-67
2023/01/17 09:31:22;;;;;;;19.20;8.85;;;;;;;1.21;100.00;98735.50;5065314;28;20048;-69
2023/01/17 09:33:50;;;;;;;13.60;9.80;;;;;;;1.16;100.00;98740.28;5059723;28;20459;-68
2023/01/17 09:36:17;;;;;;;19.88;9.20;;;;;;;1.14;100.00;98737.00;5065270;28;20059;-66
2023/01/17 09:38:43;;;;;;;27.25;9.93;;;;;;;1.13;100.00;98743.91;5050284;28;20059;-68
2023/01/17 09:41:21;;;;;;;17.20;9.15;;;;;;;1.26;100.00;98751.41;5062066;28;20048;-69
2023/01/17 09:43:54;;;;;;;16.38;9.23;;;;;;;1.28;100.00;98748.69;5056330;28;20159;-67
2023/01/17 09:46:25;;;;;;;14.13;8.07;;;;;;;1.33;100.00;98757.66;5065034;28;20057;-68
2023/01/17 09:49:11;;;;;;;15.45;9.15;;;;;;;1.45;100.00;98752.31;5065620;28;20049;-68
2023/01/17 09:51:39;;;;;;;12.43;8.10;;;;;;;1.41;100.00;98763.88;5054641;28;20052;-68
2023/01/17 09:54:17;;;;;;;14.05;7.97;;;;;;;1.42;100.00;98761.16;5059518;28;20179;-69
2023/01/17 09:56:51;;;;;;;14.20;7.72;;;;;;;1.54;100.00;98760.06;5058672;28;20053;-68
2023/01/17 09:59:27;;;;;;;13.45;7.93;;;;;;;1.61;100.00;98762.91;5064674;28;20115;-66
2023/01/17 10:02:36;;;;;;;13.25;7.93;;;;;;;1.64;100.00;98762.63;5058772;28;20048;-68
2023/01/17 10:05:33;;;;;;;15.50;7.53;;;;;;;1.70;100.00;98762.06;5056699;28;20101;-69
2023/01/17 10:08:10;;;;;;;13.63;7.28;;;;;;;1.71;100.00;98766.28;5047924;28;20459;-69
2023/01/17 10:11:11;;;;;;;16.52;6.70;;;;;;;1.71;100.00;98760.31;5064072;28;20044;-67
2023/01/17 10:13:49;;;;;;;10.80;6.30;;;;;;;1.67;100.00;98767.53;5058235;28;20764;-68
2023/01/17 10:16:16;;;;;;;8.93;5.50;;;;;;;1.65;100.00;98769.44;5064782;28;20074;-68
2023/01/17 10:19:11;;;;;;;12.32;7.07;;;;;;;1.75;100.00;98769.41;5057986;28;20053;-68
2023/01/17 10:21:44;;;;;;;16.77;7.03;;;;;;;1.75;100.00;98766.81;5050924;28;20049;-67
2023/01/17 10:24:38;;;;;;;10.90;6.88;;;;;;;1.85;100.00;98770.19;5058228;28;20053;-68
2023/01/17 10:27:23;;;;;;;10.65;7.07;;;;;;;1.96;100.00;98766.59;5058935;28;20417;-68
2023/01/17 10:29:50;;;;;;;15.80;7.30;;;;;;;2.04;100.00;98761.56;5051198;28;20055;-69
2023/01/17 10:32:21;;;;;;;13.63;6.93;;;;;;;2.11;100.00;98760.00;5063081;28;20059;-69
2023/01/17 10:34:50;;;;;;;10.57;6.60;;;;;;;2.17;100.00;98756.03;5056687;28;20053;-67
2023/01/17 10:37:23;;;;;;;12.05;5.65;;;;;;;2.20;100.00;98753.19;5057410;28;20091;-69
2023/01/17 10:39:53;;;;;;;13.93;6.68;;;;;;;2.22;100.00;98751.25;5065673;28;20412;-69
2023/01/17 10:42:30;;;;;;;11.68;5.85;;;;;;;2.31;100.00;98762.50;5059412;28;20139;-69
2023/01/17 10:45:07;;;;;;;11.82;5.82;;;;;;;2.46;100.00;98760.25;5064119;28;20075;-69
2023/01/17 10:47:36;;;;;;;11.68;5.82;;;;;;;2.42;100.00;98757.16;5052965;28;20063;-69
2023/01/17 10:50:04;;;;;;;10.25;5.88;;;;;;;2.41;100.00;98763.28;5059069;28;20052;-70
2023/01/17 10:52:44;;;;;;;14.05;6.07;;;;;;;2.29;100.00;98760.06;5064945;28;20052;-69
2023/01/17 10:55:38;;;;;;;11.50;5.38;;;;;;;2.34;100.00;98754.47;5066519;28;20052;-69
2023/01/17 10:58:10;;;;;;;10.05;5.35;;;;;;;2.32;100.00;98758.97;5053878;28;20059;-69
2023/01/17 11:01:00;;;;;;;11.00;5.45;;;;;;;2.40;100.00;98753.09;5055472;28;20058;-67
2023/01/17 11:03:27;;;;;;;11.40;5.45;;;;;;;2.41;100.00;98752.09;5059723;28;20060;-68
2023/01/17 11:06:15;;;;;;;9.65;5.28;;;;;;;2.46;100.00;98752.50;5058090;28;20296;-68
2023/01/17 11:08:51;;;;;;;10.48;5.63;;;;;;;2.44;100.00;98757.00;5063782;28;20143;-68
2023/01/17 11:11:20;;;;;;;11.55;5.00;;;;;;;2.37;100.00;98752.41;5057418;28;20052;-65
2023/01/17 11:13:48;;;;;;;12.90;5.03;;;;;;;2.47;100.00;98749.78;5064603;28;20051;-67
2023/01/17 11:16:23;;;;;;;9.98;4.80;;;;;;;2.48;100.00;98750.59;5053409;28;20056;-67
2023/01/17 11:19:11;;;;;;;9.60;4.80;;;;;;;2.50;100.00;98753.84;5059399;28;20083;-68
2023/01/17 11:21:47;;;;;;;8.90;5.18;;;;;;;2.52;100.00;98749.31;5056162;28;20136;-69
2023/01/17 11:24:19;;;;;;;9.98;5.05;;;;;;;2.52;100.00;98757.91;5064071;28;20053;-69
2023/01/17 11:26:48;;;;;;;9.70;4.78;;;;;;;2.60;100.00;98757.19;5063962;28;20102;-68
2023/01/17 11:29:37;;;;;;;7.50;4.78;;;;;;;2.68;100.00;98754.66;5049814;28;20052;-69
2023/01/17 11:32:28;;;;;;;12.77;5.07;;;;;;;2.79;100.00;98745.09;5053954;28;20048;-69
2023/01/17 11:35:06;;;;;;;10.48;4.97;;;;;;;2.79;100.00;98745.09;5058034;28;20048;-69
2023/01/17 11:37:34;;;;;;;17.73;4.97;;;;;;;2.82;100.00;98748.16;5064776;28;20102;-69
2023/01/17 11:40:17;;;;;;;12.20;5.05;;;;;;;2.97;100.00;98745.88;5057584;28;20579;-69
2023/01/17 11:42:43;;;;;;;10.15;5.10;;;;;;;3.04;100.00;98746.94;5057347;28;20131;-64
2023/01/17 11:45:24;;;;;;;8.88;5.18;;;;;;;3.12;100.00;98747.00;5051989;28;20526;-68
2023/01/17 11:48:08;;;;;;;17.05;4.85;;;;;;;3.16;100.00;98748.31;5064019;28;20079;-69
2023/01/17 11:50:37;;;;;;;7.97;4.03;;;;;;;3.20;100.00;98756.59;5050940;28;20079;-67
2023/01/17 11:53:18;;;;;;;10.43;4.03;;;;;;;3.19;100.00;98747.19;5062400;28;20048;-68
2023/01/17 11:56:05;;;;;;;9.45;4.63;;;;;;;3.20;100.00;98745.44;5057899;28;20063;-69
2023/01/17 11:58:35;;;;;;;7.72;3.85;;;;;;;3.20;100.00;98742.84;5057493;28;20051;-64
2023/01/17 12:01:27;;;;;;;12.35;3.38;;;;;;;3.21;100.00;98737.50;5064613;28;20075;-66
2023/01/17 12:04:25;;;;;;;8.05;3.92;;;;;;;3.33;100.00;98738.06;5062280;28;20048;-67
2023/01/17 12:07:15;;;;;;;8.10;3.67;;;;;;;3.41;100.00;98732.97;5056501;28;20054;-68
2023/01/17 12:09:58;;;;;;;6.80;3.63;;;;;;;3.43;100.00;98731.03;5063512;28;20110;-69
2023/01/17 12:19:17;;;;;;;10.40;3.47;;;;;;;3.46;100.00;98727.31;5057401;28;20429;-69
2023/01/17 12:21:49;;;;;;;7.70;3.60;;;;;;;3.46;100.00;98735.09;5053002;28;20048;-69
2023/01/17 12:24:49;;;;;;;10.45;3.25;;;;;;;3.45;100.00;98730.84;5061089;28;20064;-66
2023/01/17 12:27:28;;;;;;;19.52;4.15;;;;;;;3.49;100.00;98725.25;5057119;28;20049;-67
2023/01/17 12:30:00;;;;;;;7.93;3.20;;;;;;;3.53;100.00;98729.16;5063165;28;20045;-67
2023/01/17 12:32:42;;;;;;;8.18;3.70;;;;;;;3.59;100.00;98732.09;5066116;28;20105;-68
2023/01/17 12:35:16;;;;;;;8.43;3.47;;;;;;;3.57;100.00;98721.88;5066662;28;20072;-67
2023/01/17 12:37:45;;;;;;;7.90;3.45;;;;;;;3.66;100.00;98727.91;5055435;28;20052;-67
2023/01/17 12:40:26;;;;;;;7.72;3.10;;;;;;;3.77;100.00;98722.47;5062309;28;20091;-67
2023/01/17 12:43:27;;;;;;;5.07;3.03;;;;;;;3.93;100.00;98738.13;5056506;28;20056;-67
2023/01/17 12:45:55;;;;;;;6.63;3.05;;;;;;;3.98;100.00;98735.06;5053191;28;20414;-67
2023/01/17 12:48:26;;;;;;;4.63;2.65;;;;;;;3.94;100.00;98729.38;5058912;28;20056;-68
2023/01/17 12:51:08;;;;;;;5.45;3.08;;;;;;;4.02;100.00;98738.16;5067148;28;20098;-67
2023/01/17 12:54:00;;;;;;;4.30;2.45;;;;;;;4.06;100.00;98729.91;5058226;28;20059;-69
2023/01/17 12:56:36;;;;;;;4.15;2.00;;;;;;;4.02;92.38;98731.19;5049149;28;20056;-69
2023/01/17 12:59:24;;;;;;;6.57;2.35;;;;;;;4.17;100.00;98734.00;5062897;28;20045;-69
2023/01/17 13:01:56;;;;;;;4.95;2.13;;;;;;;4.25;98.75;98723.66;5066935;28;20131;-69
2023/01/17 13:04:28;;;;;;;9.18;2.10;;;;;;;4.16;87.58;98728.00;5058921;28;20171;-68
2023/01/17 13:07:07;;;;;;;3.03;1.90;;;;;;;4.18;88.63;98727.06;5061142;28;20507;-67
2023/01/17 13:09:41;;;;;;;5.30;2.25;;;;;;;4.27;93.77;98726.09;5066482;28;20052;-68
2023/01/17 13:12:14;;;;;;;5.80;2.50;;;;;;;4.36;96.21;98718.16;5055875;28;20060;-67
2023/01/17 13:14:40;;;;;;;6.60;1.85;;;;;;;4.28;84.02;98722.53;5052585;28;20067;-68